sensor_id;sensor_type;location;lat;lon;timestamp;temperature;humidity
73360;DHT22;63092;43.582;19.528;2023-05-10T00:01:24;15.80;85.10
73360;DHT22;63092;43.582;19.528;2023-05-10T00:03:50;15.80;85.10
73360;DHT22;63092;43.582;19.528;2023-05-10T00:06:15;15.60;85.10
73360;DHT22;63092;43.582;19.528;2023-05-10T00:08:41;15.40;86.10
73360;DHT22;63092;43.582;19.528;2023-05-10T00:11:07;15.40;86.30
73360;DHT22;63092;43.582;19.528;2023-05-10T00:13:33;15.30;86.50
73360;DHT22;63092;43.582;19.528;2023-05-10T00:15:58;15.20;86.20
73360;DHT22;63092;43.582;19.528;2023-05-10T00:18:24;15.00;87.20
73360;DHT22;63092;43.582;19.528;2023-05-10T00:20:50;15.00;88.50
73360;DHT22;63092;43.582;19.528;2023-05-10T00:23:16;14.90;89.40
73360;DHT22;63092;43.582;19.528;2023-05-10T00:25:42;14.90;89.80
73360;DHT22;63092;43.582;19.528;2023-05-10T00:28:07;14.90;89.30
73360;DHT22;63092;43.582;19.528;2023-05-10T00:30:33;15.00;88.90
73360;DHT22;63092;43.582;19.528;2023-05-10T00:32:59;15.00;88.90
73360;DHT22;63092;43.582;19.528;2023-05-10T00:35:25;15.10;89.10
73360;DHT22;63092;43.582;19.528;2023-05-10T00:37:51;15.00;90.00
73360;DHT22;63092;43.582;19.528;2023-05-10T00:40:17;15.10;89.70
73360;DHT22;63092;43.582;19.528;2023-05-10T00:42:42;15.20;89.10
73360;DHT22;63092;43.582;19.528;2023-05-10T00:45:08;15.20;89.00
73360;DHT22;63092;43.582;19.528;2023-05-10T00:47:34;15.30;88.70
73360;DHT22;63092;43.582;19.528;2023-05-10T00:50:01;15.30;88.20
73360;DHT22;63092;43.582;19.528;2023-05-10T00:52:28;15.40;88.30
73360;DHT22;63092;43.582;19.528;2023-05-10T00:54:54;15.30;88.60
73360;DHT22;63092;43.582;19.528;2023-05-10T00:57:21;15.20;89.10
73360;DHT22;63092;43.582;19.528;2023-05-10T00:59:48;15.10;89.80
73360;DHT22;63092;43.582;19.528;2023-05-10T01:02:14;14.90;90.00
73360;DHT22;63092;43.582;19.528;2023-05-10T01:04:40;14.70;90.00
73360;DHT22;63092;43.582;19.528;2023-05-10T01:07:06;14.80;90.20
73360;DHT22;63092;43.582;19.528;2023-05-10T01:09:32;14.90;90.00
73360;DHT22;63092;43.582;19.528;2023-05-10T01:11:59;14.90;89.70
73360;DHT22;63092;43.582;19.528;2023-05-10T01:14:26;15.00;89.80
73360;DHT22;63092;43.582;19.528;2023-05-10T01:16:52;14.90;89.80
73360;DHT22;63092;43.582;19.528;2023-05-10T01:19:23;14.90;90.10
73360;DHT22;63092;43.582;19.528;2023-05-10T01:22:20;15.00;90.10
73360;DHT22;63092;43.582;19.528;2023-05-10T01:27:47;14.90;90.60
73360;DHT22;63092;43.582;19.528;2023-05-10T01:30:31;15.00;90.60
73360;DHT22;63092;43.582;19.528;2023-05-10T01:36:39;14.90;90.70
73360;DHT22;63092;43.582;19.528;2023-05-10T01:39:16;14.80;91.10
73360;DHT22;63092;43.582;19.528;2023-05-10T01:41:54;14.90;91.00
73360;DHT22;63092;43.582;19.528;2023-05-10T01:44:37;15.00;90.80
73360;DHT22;63092;43.582;19.528;2023-05-10T01:47:09;14.90;90.80
73360;DHT22;63092;43.582;19.528;2023-05-10T01:49:56;15.00;90.80
73360;DHT22;63092;43.582;19.528;2023-05-10T01:52:38;14.70;91.20
73360;DHT22;63092;43.582;19.528;2023-05-10T01:55:08;14.70;91.30
73360;DHT22;63092;43.582;19.528;2023-05-10T01:57:39;14.70;91.30
73360;DHT22;63092;43.582;19.528;2023-05-10T02:00:07;14.70;91.20
73360;DHT22;63092;43.582;19.528;2023-05-10T02:02:39;14.70;91.40
73360;DHT22;63092;43.582;19.528;2023-05-10T02:05:06;14.70;91.70
73360;DHT22;63092;43.582;19.528;2023-05-10T02:07:35;14.70;91.60
73360;DHT22;63092;43.582;19.528;2023-05-10T02:10:03;14.60;92.00
73360;DHT22;63092;43.582;19.528;2023-05-10T02:12:31;14.60;92.00
73360;DHT22;63092;43.582;19.528;2023-05-10T02:14:59;14.50;92.20
73360;DHT22;63092;43.582;19.528;2023-05-10T02:17:26;14.00;92.80
73360;DHT22;63092;43.582;19.528;2023-05-10T02:19:53;14.20;92.70
73360;DHT22;63092;43.582;19.528;2023-05-10T02:22:20;14.30;92.70
73360;DHT22;63092;43.582;19.528;2023-05-10T02:24:47;14.40;92.70
73360;DHT22;63092;43.582;19.528;2023-05-10T02:27:14;14.40;92.70
73360;DHT22;63092;43.582;19.528;2023-05-10T02:29:41;14.50;92.70
73360;DHT22;63092;43.582;19.528;2023-05-10T02:32:10;14.50;92.70
73360;DHT22;63092;43.582;19.528;2023-05-10T02:34:36;14.60;92.60
73360;DHT22;63092;43.582;19.528;2023-05-10T02:37:02;14.60;92.70
73360;DHT22;63092;43.582;19.528;2023-05-10T02:39:29;14.60;92.60
73360;DHT22;63092;43.582;19.528;2023-05-10T02:41:57;14.60;92.30
73360;DHT22;63092;43.582;19.528;2023-05-10T02:44:23;14.60;92.30
73360;DHT22;63092;43.582;19.528;2023-05-10T02:46:50;14.60;92.40
73360;DHT22;63092;43.582;19.528;2023-05-10T02:49:16;14.60;92.50
73360;DHT22;63092;43.582;19.528;2023-05-10T02:51:51;14.70;92.70
73360;DHT22;63092;43.582;19.528;2023-05-10T02:54:20;14.70;92.50
73360;DHT22;63092;43.582;19.528;2023-05-10T02:56:57;14.70;92.70
73360;DHT22;63092;43.582;19.528;2023-05-10T02:59:23;14.70;92.70
73360;DHT22;63092;43.582;19.528;2023-05-10T03:01:48;14.60;92.90
73360;DHT22;63092;43.582;19.528;2023-05-10T03:04:14;14.50;92.90
73360;DHT22;63092;43.582;19.528;2023-05-10T03:06:40;14.50;93.00
73360;DHT22;63092;43.582;19.528;2023-05-10T03:09:07;14.50;93.20
73360;DHT22;63092;43.582;19.528;2023-05-10T03:19:35;14.00;94.20
73360;DHT22;63092;43.582;19.528;2023-05-10T03:22:07;14.10;94.20
73360;DHT22;63092;43.582;19.528;2023-05-10T03:24:34;14.00;94.60
73360;DHT22;63092;43.582;19.528;2023-05-10T03:27:02;13.90;94.90
73360;DHT22;63092;43.582;19.528;2023-05-10T03:29:30;13.80;95.20
73360;DHT22;63092;43.582;19.528;2023-05-10T03:31:58;13.70;95.50
73360;DHT22;63092;43.582;19.528;2023-05-10T03:34:25;13.80;95.30
73360;DHT22;63092;43.582;19.528;2023-05-10T03:36:51;13.80;95.00
73360;DHT22;63092;43.582;19.528;2023-05-10T03:39:17;13.80;95.10
73360;DHT22;63092;43.582;19.528;2023-05-10T03:41:43;13.90;95.30
73360;DHT22;63092;43.582;19.528;2023-05-10T03:44:08;14.00;95.20
73360;DHT22;63092;43.582;19.528;2023-05-10T03:46:34;14.00;95.40
73360;DHT22;63092;43.582;19.528;2023-05-10T03:49:00;14.10;95.40
73360;DHT22;63092;43.582;19.528;2023-05-10T03:51:26;14.10;95.40
73360;DHT22;63092;43.582;19.528;2023-05-10T03:53:54;13.90;95.40
73360;DHT22;63092;43.582;19.528;2023-05-10T03:56:20;13.70;95.90
73360;DHT22;63092;43.582;19.528;2023-05-10T03:58:46;13.70;96.10
73360;DHT22;63092;43.582;19.528;2023-05-10T04:01:12;13.80;96.10
73360;DHT22;63092;43.582;19.528;2023-05-10T04:03:38;13.90;96.00
73360;DHT22;63092;43.582;19.528;2023-05-10T04:06:04;13.90;96.10
73360;DHT22;63092;43.582;19.528;2023-05-10T04:08:31;13.70;96.50
73360;DHT22;63092;43.582;19.528;2023-05-10T04:11:10;13.70;96.80
73360;DHT22;63092;43.582;19.528;2023-05-10T04:13:36;13.50;97.30
73360;DHT22;63092;43.582;19.528;2023-05-10T04:16:02;13.50;97.30
73360;DHT22;63092;43.582;19.528;2023-05-10T04:18:28;13.60;97.00
73360;DHT22;63092;43.582;19.528;2023-05-10T04:20:54;13.80;96.80
73360;DHT22;63092;43.582;19.528;2023-05-10T04:23:20;13.90;96.50
73360;DHT22;63092;43.582;19.528;2023-05-10T04:25:45;14.00;96.30
73360;DHT22;63092;43.582;19.528;2023-05-10T04:28:11;14.10;96.20
73360;DHT22;63092;43.582;19.528;2023-05-10T04:30:37;14.10;96.10
73360;DHT22;63092;43.582;19.528;2023-05-10T04:33:03;14.00;96.30
73360;DHT22;63092;43.582;19.528;2023-05-10T04:35:28;14.20;96.00
73360;DHT22;63092;43.582;19.528;2023-05-10T04:37:54;14.20;96.00
73360;DHT22;63092;43.582;19.528;2023-05-10T04:40:20;14.30;95.90
73360;DHT22;63092;43.582;19.528;2023-05-10T04:42:46;14.30;96.00
73360;DHT22;63092;43.582;19.528;2023-05-10T04:45:12;14.40;96.00
73360;DHT22;63092;43.582;19.528;2023-05-10T04:47:40;14.40;96.00
73360;DHT22;63092;43.582;19.528;2023-05-10T04:50:06;14.20;96.30
73360;DHT22;63092;43.582;19.528;2023-05-10T04:52:32;14.30;96.20
73360;DHT22;63092;43.582;19.528;2023-05-10T04:54:58;14.30;96.10
73360;DHT22;63092;43.582;19.528;2023-05-10T04:57:24;14.40;96.20
73360;DHT22;63092;43.582;19.528;2023-05-10T04:59:50;14.40;96.40
73360;DHT22;63092;43.582;19.528;2023-05-10T05:02:16;14.50;96.50
73360;DHT22;63092;43.582;19.528;2023-05-10T05:04:42;14.30;96.20
73360;DHT22;63092;43.582;19.528;2023-05-10T05:07:07;14.40;96.20
73360;DHT22;63092;43.582;19.528;2023-05-10T05:09:33;14.50;95.80
73360;DHT22;63092;43.582;19.528;2023-05-10T05:11:59;14.50;95.80
73360;DHT22;63092;43.582;19.528;2023-05-10T05:14:25;14.50;96.10
73360;DHT22;63092;43.582;19.528;2023-05-10T05:16:52;14.20;96.10
73360;DHT22;63092;43.582;19.528;2023-05-10T05:19:18;14.20;96.40
73360;DHT22;63092;43.582;19.528;2023-05-10T05:21:43;14.20;96.40
73360;DHT22;63092;43.582;19.528;2023-05-10T05:24:09;14.20;96.40
73360;DHT22;63092;43.582;19.528;2023-05-10T05:26:36;13.90;97.00
73360;DHT22;63092;43.582;19.528;2023-05-10T05:29:02;13.90;97.00
73360;DHT22;63092;43.582;19.528;2023-05-10T05:31:28;13.90;97.10
73360;DHT22;63092;43.582;19.528;2023-05-10T05:33:54;14.00;97.10
73360;DHT22;63092;43.582;19.528;2023-05-10T05:36:20;13.90;97.10
73360;DHT22;63092;43.582;19.528;2023-05-10T05:38:46;13.90;97.10
73360;DHT22;63092;43.582;19.528;2023-05-10T05:41:12;14.00;97.00
73360;DHT22;63092;43.582;19.528;2023-05-10T05:43:37;14.10;97.00
73360;DHT22;63092;43.582;19.528;2023-05-10T05:46:03;14.20;96.70
73360;DHT22;63092;43.582;19.528;2023-05-10T05:48:30;14.30;96.80
73360;DHT22;63092;43.582;19.528;2023-05-10T05:50:56;14.40;97.20
73360;DHT22;63092;43.582;19.528;2023-05-10T05:53:22;14.20;97.20
73360;DHT22;63092;43.582;19.528;2023-05-10T05:55:56;14.10;97.40
73360;DHT22;63092;43.582;19.528;2023-05-10T05:58:22;14.20;97.20
73360;DHT22;63092;43.582;19.528;2023-05-10T06:00:48;14.30;97.20
73360;DHT22;63092;43.582;19.528;2023-05-10T06:03:14;14.40;97.10
73360;DHT22;63092;43.582;19.528;2023-05-10T06:05:40;14.50;96.90
73360;DHT22;63092;43.582;19.528;2023-05-10T06:08:06;14.40;97.00
73360;DHT22;63092;43.582;19.528;2023-05-10T06:10:32;14.30;96.90
73360;DHT22;63092;43.582;19.528;2023-05-10T06:12:57;14.30;97.00
73360;DHT22;63092;43.582;19.528;2023-05-10T06:15:23;14.50;97.10
73360;DHT22;63092;43.582;19.528;2023-05-10T06:17:49;14.50;97.20
73360;DHT22;63092;43.582;19.528;2023-05-10T06:20:15;14.60;97.20
73360;DHT22;63092;43.582;19.528;2023-05-10T06:22:41;14.60;97.10
73360;DHT22;63092;43.582;19.528;2023-05-10T06:25:08;14.60;97.20
73360;DHT22;63092;43.582;19.528;2023-05-10T06:27:34;14.50;97.10
73360;DHT22;63092;43.582;19.528;2023-05-10T06:29:59;14.40;97.10
73360;DHT22;63092;43.582;19.528;2023-05-10T06:32:25;14.40;96.60
73360;DHT22;63092;43.582;19.528;2023-05-10T06:34:51;14.30;97.10
73360;DHT22;63092;43.582;19.528;2023-05-10T06:37:17;14.20;97.20
73360;DHT22;63092;43.582;19.528;2023-05-10T06:39:43;14.00;97.80
73360;DHT22;63092;43.582;19.528;2023-05-10T06:42:09;14.10;97.40
73360;DHT22;63092;43.582;19.528;2023-05-10T06:44:34;14.10;97.50
73360;DHT22;63092;43.582;19.528;2023-05-10T06:47:00;14.20;97.70
73360;DHT22;63092;43.582;19.528;2023-05-10T06:49:26;14.10;97.90
73360;DHT22;63092;43.582;19.528;2023-05-10T06:51:52;14.20;97.70
73360;DHT22;63092;43.582;19.528;2023-05-10T06:54:18;14.20;97.70
73360;DHT22;63092;43.582;19.528;2023-05-10T06:56:44;14.30;98.00
73360;DHT22;63092;43.582;19.528;2023-05-10T06:59:10;14.30;98.00
73360;DHT22;63092;43.582;19.528;2023-05-10T07:01:35;14.30;97.90
73360;DHT22;63092;43.582;19.528;2023-05-10T07:04:02;14.30;97.70
73360;DHT22;63092;43.582;19.528;2023-05-10T07:06:28;14.30;97.90
73360;DHT22;63092;43.582;19.528;2023-05-10T07:08:54;14.40;98.50
73360;DHT22;63092;43.582;19.528;2023-05-10T07:11:20;14.60;99.00
73360;DHT22;63092;43.582;19.528;2023-05-10T07:13:45;14.70;99.00
73360;DHT22;63092;43.582;19.528;2023-05-10T07:16:12;14.90;99.00
73360;DHT22;63092;43.582;19.528;2023-05-10T07:18:37;14.90;99.40
73360;DHT22;63092;43.582;19.528;2023-05-10T07:21:03;14.80;99.90
73360;DHT22;63092;43.582;19.528;2023-05-10T07:23:29;14.80;99.90
73360;DHT22;63092;43.582;19.528;2023-05-10T07:25:55;15.00;99.90
73360;DHT22;63092;43.582;19.528;2023-05-10T07:28:23;15.00;99.90
73360;DHT22;63092;43.582;19.528;2023-05-10T07:30:49;14.80;99.90
73360;DHT22;63092;43.582;19.528;2023-05-10T07:33:15;14.90;99.90
73360;DHT22;63092;43.582;19.528;2023-05-10T07:35:42;14.70;99.90
73360;DHT22;63092;43.582;19.528;2023-05-10T07:38:08;14.80;99.90
73360;DHT22;63092;43.582;19.528;2023-05-10T07:40:33;14.80;99.90
73360;DHT22;63092;43.582;19.528;2023-05-10T07:42:59;14.80;99.90
73360;DHT22;63092;43.582;19.528;2023-05-10T07:45:27;14.90;99.90
73360;DHT22;63092;43.582;19.528;2023-05-10T07:47:53;14.80;99.90
73360;DHT22;63092;43.582;19.528;2023-05-10T07:50:18;14.80;99.90
73360;DHT22;63092;43.582;19.528;2023-05-10T07:52:44;15.00;99.90
73360;DHT22;63092;43.582;19.528;2023-05-10T07:55:10;15.10;99.30
73360;DHT22;63092;43.582;19.528;2023-05-10T07:57:36;15.10;99.00
73360;DHT22;63092;43.582;19.528;2023-05-10T08:00:02;15.20;99.00
73360;DHT22;63092;43.582;19.528;2023-05-10T08:02:28;15.30;98.80
73360;DHT22;63092;43.582;19.528;2023-05-10T08:04:54;15.20;98.60
73360;DHT22;63092;43.582;19.528;2023-05-10T08:07:21;15.40;98.30
73360;DHT22;63092;43.582;19.528;2023-05-10T08:09:46;15.10;99.50
73360;DHT22;63092;43.582;19.528;2023-05-10T08:12:12;15.20;98.40
73360;DHT22;63092;43.582;19.528;2023-05-10T08:14:38;15.20;98.50
73360;DHT22;63092;43.582;19.528;2023-05-10T08:17:04;15.30;98.80
73360;DHT22;63092;43.582;19.528;2023-05-10T08:19:29;15.30;98.50
73360;DHT22;63092;43.582;19.528;2023-05-10T08:21:55;15.20;98.90
73360;DHT22;63092;43.582;19.528;2023-05-10T08:24:22;15.20;99.20
73360;DHT22;63092;43.582;19.528;2023-05-10T08:26:48;15.20;98.80
73360;DHT22;63092;43.582;19.528;2023-05-10T08:29:14;15.20;99.00
73360;DHT22;63092;43.582;19.528;2023-05-10T08:31:40;15.00;98.90
73360;DHT22;63092;43.582;19.528;2023-05-10T08:34:05;15.00;99.30
73360;DHT22;63092;43.582;19.528;2023-05-10T08:36:31;15.00;99.00
73360;DHT22;63092;43.582;19.528;2023-05-10T08:38:58;15.10;99.20
73360;DHT22;63092;43.582;19.528;2023-05-10T08:41:24;15.20;99.10
73360;DHT22;63092;43.582;19.528;2023-05-10T08:43:53;15.20;99.00
73360;DHT22;63092;43.582;19.528;2023-05-10T08:46:21;15.00;99.30
73360;DHT22;63092;43.582;19.528;2023-05-10T08:48:48;15.00;99.60
73360;DHT22;63092;43.582;19.528;2023-05-10T08:51:17;15.10;99.90
73360;DHT22;63092;43.582;19.528;2023-05-10T08:53:44;15.00;99.50
73360;DHT22;63092;43.582;19.528;2023-05-10T08:56:10;15.10;99.40
73360;DHT22;63092;43.582;19.528;2023-05-10T08:58:36;15.10;99.30
73360;DHT22;63092;43.582;19.528;2023-05-10T09:01:03;15.10;99.50
73360;DHT22;63092;43.582;19.528;2023-05-10T09:03:30;15.00;99.60
73360;DHT22;63092;43.582;19.528;2023-05-10T09:05:56;15.20;99.00
73360;DHT22;63092;43.582;19.528;2023-05-10T09:08:23;15.20;99.50
73360;DHT22;63092;43.582;19.528;2023-05-10T09:10:53;15.30;99.10
73360;DHT22;63092;43.582;19.528;2023-05-10T09:13:21;15.20;99.30
73360;DHT22;63092;43.582;19.528;2023-05-10T09:15:48;15.40;99.90
73360;DHT22;63092;43.582;19.528;2023-05-10T09:18:14;15.60;99.70
73360;DHT22;63092;43.582;19.528;2023-05-10T09:20:40;15.60;99.00
73360;DHT22;63092;43.582;19.528;2023-05-10T09:23:06;15.80;99.10
73360;DHT22;63092;43.582;19.528;2023-05-10T09:25:32;15.70;98.60
73360;DHT22;63092;43.582;19.528;2023-05-10T09:27:59;15.90;98.80
73360;DHT22;63092;43.582;19.528;2023-05-10T09:30:26;16.00;99.10
73360;DHT22;63092;43.582;19.528;2023-05-10T09:32:52;16.00;97.60
73360;DHT22;63092;43.582;19.528;2023-05-10T09:35:20;16.10;97.70
73360;DHT22;63092;43.582;19.528;2023-05-10T09:37:49;16.00;97.70
73360;DHT22;63092;43.582;19.528;2023-05-10T09:40:16;16.20;97.70
73360;DHT22;63092;43.582;19.528;2023-05-10T09:43:00;16.40;98.10
73360;DHT22;63092;43.582;19.528;2023-05-10T09:45:31;16.30;98.40
73360;DHT22;63092;43.582;19.528;2023-05-10T09:47:57;16.50;97.90
73360;DHT22;63092;43.582;19.528;2023-05-10T09:50:24;16.40;97.90
73360;DHT22;63092;43.582;19.528;2023-05-10T09:55:21;16.30;98.50
73360;DHT22;63092;43.582;19.528;2023-05-10T09:57:48;16.30;98.40
73360;DHT22;63092;43.582;19.528;2023-05-10T10:00:21;16.30;98.20
73360;DHT22;63092;43.582;19.528;2023-05-10T10:03:00;16.40;98.80
73360;DHT22;63092;43.582;19.528;2023-05-10T10:05:29;16.30;98.50
73360;DHT22;63092;43.582;19.528;2023-05-10T10:07:57;16.60;98.50
73360;DHT22;63092;43.582;19.528;2023-05-10T10:10:24;16.60;97.40
73360;DHT22;63092;43.582;19.528;2023-05-10T10:12:50;16.60;97.30
73360;DHT22;63092;43.582;19.528;2023-05-10T10:15:16;16.70;97.50
73360;DHT22;63092;43.582;19.528;2023-05-10T10:17:43;16.70;97.30
73360;DHT22;63092;43.582;19.528;2023-05-10T10:20:09;16.90;97.20
73360;DHT22;63092;43.582;19.528;2023-05-10T10:22:36;17.00;97.20
73360;DHT22;63092;43.582;19.528;2023-05-10T10:25:03;17.10;96.60
73360;DHT22;63092;43.582;19.528;2023-05-10T10:30:13;17.40;96.50
73360;DHT22;63092;43.582;19.528;2023-05-10T10:33:47;17.30;96.20
73360;DHT22;63092;43.582;19.528;2023-05-10T10:35:41;17.50;96.10
73360;DHT22;63092;43.582;19.528;2023-05-10T10:38:08;17.30;96.10
73360;DHT22;63092;43.582;19.528;2023-05-10T10:40:34;17.60;95.50
73360;DHT22;63092;43.582;19.528;2023-05-10T10:46:12;17.80;95.50
73360;DHT22;63092;43.582;19.528;2023-05-10T10:49:10;17.90;95.10
73360;DHT22;63092;43.582;19.528;2023-05-10T10:51:39;18.00;94.70
73360;DHT22;63092;43.582;19.528;2023-05-10T10:54:11;18.10;95.00
73360;DHT22;63092;43.582;19.528;2023-05-10T10:56:37;18.20;94.00
73360;DHT22;63092;43.582;19.528;2023-05-10T10:59:03;18.10;94.00
73360;DHT22;63092;43.582;19.528;2023-05-10T11:01:41;18.30;94.10
73360;DHT22;63092;43.582;19.528;2023-05-10T11:06:35;18.40;94.10
73360;DHT22;63092;43.582;19.528;2023-05-10T11:09:12;18.60;93.90
73360;DHT22;63092;43.582;19.528;2023-05-10T11:11:54;18.70;93.40
73360;DHT22;63092;43.582;19.528;2023-05-10T11:16:50;19.20;92.60
73360;DHT22;63092;43.582;19.528;2023-05-10T11:19:17;19.30;92.00
73360;DHT22;63092;43.582;19.528;2023-05-10T11:21:51;19.60;92.20
73360;DHT22;63092;43.582;19.528;2023-05-10T11:24:21;19.60;91.60
73360;DHT22;63092;43.582;19.528;2023-05-10T11:26:50;19.70;91.30
73360;DHT22;63092;43.582;19.528;2023-05-10T11:29:16;19.80;91.40
73360;DHT22;63092;43.582;19.528;2023-05-10T11:31:45;19.90;90.70
73360;DHT22;63092;43.582;19.528;2023-05-10T11:34:28;20.00;90.80
73360;DHT22;63092;43.582;19.528;2023-05-10T11:36:56;20.00;91.00
73360;DHT22;63092;43.582;19.528;2023-05-10T11:39:30;19.80;90.70
73360;DHT22;63092;43.582;19.528;2023-05-10T11:41:56;19.80;90.70
73360;DHT22;63092;43.582;19.528;2023-05-10T11:44:22;19.90;90.40
73360;DHT22;63092;43.582;19.528;2023-05-10T11:46:49;20.10;90.40
73360;DHT22;63092;43.582;19.528;2023-05-10T11:49:14;20.30;88.20
73360;DHT22;63092;43.582;19.528;2023-05-10T11:51:40;20.30;87.00
73360;DHT22;63092;43.582;19.528;2023-05-10T11:54:10;20.30;86.70
73360;DHT22;63092;43.582;19.528;2023-05-10T11:56:40;20.20;84.30
73360;DHT22;63092;43.582;19.528;2023-05-10T11:59:06;20.60;81.70
73360;DHT22;63092;43.582;19.528;2023-05-10T12:01:33;20.90;79.50
73360;DHT22;63092;43.582;19.528;2023-05-10T12:04:00;21.00;79.10
73360;DHT22;63092;43.582;19.528;2023-05-10T12:06:31;21.30;80.50
73360;DHT22;63092;43.582;19.528;2023-05-10T12:08:57;21.40;78.60
73360;DHT22;63092;43.582;19.528;2023-05-10T12:11:28;21.50;78.60
73360;DHT22;63092;43.582;19.528;2023-05-10T12:13:54;21.60;76.80
73360;DHT22;63092;43.582;19.528;2023-05-10T12:16:22;21.60;75.70
73360;DHT22;63092;43.582;19.528;2023-05-10T12:18:49;21.70;75.90
73360;DHT22;63092;43.582;19.528;2023-05-10T12:21:17;21.70;77.10
73360;DHT22;63092;43.582;19.528;2023-05-10T12:23:46;21.70;76.80
73360;DHT22;63092;43.582;19.528;2023-05-10T12:26:12;21.90;77.40
73360;DHT22;63092;43.582;19.528;2023-05-10T12:28:38;22.10;75.70
73360;DHT22;63092;43.582;19.528;2023-05-10T12:31:07;22.00;76.70
73360;DHT22;63092;43.582;19.528;2023-05-10T12:33:41;22.20;76.00
73360;DHT22;63092;43.582;19.528;2023-05-10T12:36:09;22.00;75.70
73360;DHT22;63092;43.582;19.528;2023-05-10T12:38:37;21.90;75.70
73360;DHT22;63092;43.582;19.528;2023-05-10T12:41:12;21.70;75.80
73360;DHT22;63092;43.582;19.528;2023-05-10T12:43:39;21.60;76.90
73360;DHT22;63092;43.582;19.528;2023-05-10T12:46:09;21.60;77.60
73360;DHT22;63092;43.582;19.528;2023-05-10T12:48:36;21.60;77.60
73360;DHT22;63092;43.582;19.528;2023-05-10T12:51:03;21.60;77.60
73360;DHT22;63092;43.582;19.528;2023-05-10T12:53:29;21.50;77.80
73360;DHT22;63092;43.582;19.528;2023-05-10T12:55:56;21.50;77.20
73360;DHT22;63092;43.582;19.528;2023-05-10T12:58:22;21.70;76.30
73360;DHT22;63092;43.582;19.528;2023-05-10T13:00:48;21.90;75.80
73360;DHT22;63092;43.582;19.528;2023-05-10T13:03:13;22.10;75.10
73360;DHT22;63092;43.582;19.528;2023-05-10T13:05:41;22.50;75.30
73360;DHT22;63092;43.582;19.528;2023-05-10T13:08:06;22.80;73.70
73360;DHT22;63092;43.582;19.528;2023-05-10T13:10:32;22.60;72.70
73360;DHT22;63092;43.582;19.528;2023-05-10T13:12:58;22.30;73.00
73360;DHT22;63092;43.582;19.528;2023-05-10T13:15:25;22.30;72.90
73360;DHT22;63092;43.582;19.528;2023-05-10T13:17:52;22.30;72.10
73360;DHT22;63092;43.582;19.528;2023-05-10T13:20:18;22.10;72.80
73360;DHT22;63092;43.582;19.528;2023-05-10T13:22:44;21.90;72.40
73360;DHT22;63092;43.582;19.528;2023-05-10T13:25:10;21.90;73.50
73360;DHT22;63092;43.582;19.528;2023-05-10T13:27:39;21.80;72.80
73360;DHT22;63092;43.582;19.528;2023-05-10T13:30:05;21.70;73.30
73360;DHT22;63092;43.582;19.528;2023-05-10T13:32:31;21.60;73.80
73360;DHT22;63092;43.582;19.528;2023-05-10T13:34:58;21.50;73.70
73360;DHT22;63092;43.582;19.528;2023-05-10T13:37:23;21.40;74.20
73360;DHT22;63092;43.582;19.528;2023-05-10T13:39:49;21.40;74.40
73360;DHT22;63092;43.582;19.528;2023-05-10T13:42:15;21.30;74.10
73360;DHT22;63092;43.582;19.528;2023-05-10T13:44:41;21.20;76.90
73360;DHT22;63092;43.582;19.528;2023-05-10T13:47:06;21.20;76.50
73360;DHT22;63092;43.582;19.528;2023-05-10T13:49:32;21.00;76.60
73360;DHT22;63092;43.582;19.528;2023-05-10T13:51:59;21.00;77.70
73360;DHT22;63092;43.582;19.528;2023-05-10T13:54:31;21.00;77.90
73360;DHT22;63092;43.582;19.528;2023-05-10T13:56:57;20.80;78.30
73360;DHT22;63092;43.582;19.528;2023-05-10T13:59:24;20.60;78.20
73360;DHT22;63092;43.582;19.528;2023-05-10T14:01:50;20.40;79.00
73360;DHT22;63092;43.582;19.528;2023-05-10T14:04:16;20.40;79.80
73360;DHT22;63092;43.582;19.528;2023-05-10T14:06:41;20.30;81.50
73360;DHT22;63092;43.582;19.528;2023-05-10T14:09:07;20.20;81.90
73360;DHT22;63092;43.582;19.528;2023-05-10T14:11:33;20.10;82.70
73360;DHT22;63092;43.582;19.528;2023-05-10T14:13:59;20.00;83.50
73360;DHT22;63092;43.582;19.528;2023-05-10T14:16:24;20.00;83.20
73360;DHT22;63092;43.582;19.528;2023-05-10T14:18:50;20.00;83.50
73360;DHT22;63092;43.582;19.528;2023-05-10T14:21:16;20.00;83.20
73360;DHT22;63092;43.582;19.528;2023-05-10T14:23:41;20.00;83.70
73360;DHT22;63092;43.582;19.528;2023-05-10T14:26:07;19.80;85.50
73360;DHT22;63092;43.582;19.528;2023-05-10T14:28:33;19.50;88.30
73360;DHT22;63092;43.582;19.528;2023-05-10T14:30:59;19.40;87.60
73360;DHT22;63092;43.582;19.528;2023-05-10T14:33:24;19.50;89.40
73360;DHT22;63092;43.582;19.528;2023-05-10T14:35:54;19.40;89.40
73360;DHT22;63092;43.582;19.528;2023-05-10T14:38:22;19.20;90.10
73360;DHT22;63092;43.582;19.528;2023-05-10T14:40:47;19.10;90.70
73360;DHT22;63092;43.582;19.528;2023-05-10T14:43:13;19.10;90.50
73360;DHT22;63092;43.582;19.528;2023-05-10T14:45:39;19.20;90.20
73360;DHT22;63092;43.582;19.528;2023-05-10T14:48:05;19.30;90.20
73360;DHT22;63092;43.582;19.528;2023-05-10T14:50:31;19.40;90.60
73360;DHT22;63092;43.582;19.528;2023-05-10T14:52:57;19.40;90.80
73360;DHT22;63092;43.582;19.528;2023-05-10T14:55:24;19.50;90.80
73360;DHT22;63092;43.582;19.528;2023-05-10T14:57:50;19.40;91.10
73360;DHT22;63092;43.582;19.528;2023-05-10T15:00:16;19.40;91.70
73360;DHT22;63092;43.582;19.528;2023-05-10T15:02:45;19.30;91.40
73360;DHT22;63092;43.582;19.528;2023-05-10T15:05:11;19.40;91.10
73360;DHT22;63092;43.582;19.528;2023-05-10T15:07:37;19.20;91.20
73360;DHT22;63092;43.582;19.528;2023-05-10T15:10:06;19.20;90.50
73360;DHT22;63092;43.582;19.528;2023-05-10T15:12:32;19.30;90.30
73360;DHT22;63092;43.582;19.528;2023-05-10T15:14:58;19.40;90.00
73360;DHT22;63092;43.582;19.528;2023-05-10T15:17:23;19.40;90.50
73360;DHT22;63092;43.582;19.528;2023-05-10T15:19:49;19.30;89.70
73360;DHT22;63092;43.582;19.528;2023-05-10T15:22:15;19.30;89.90
73360;DHT22;63092;43.582;19.528;2023-05-10T15:24:41;19.30;89.70
73360;DHT22;63092;43.582;19.528;2023-05-10T15:27:07;19.40;89.80
73360;DHT22;63092;43.582;19.528;2023-05-10T15:29:33;19.30;90.10
73360;DHT22;63092;43.582;19.528;2023-05-10T15:31:59;19.10;90.20
73360;DHT22;63092;43.582;19.528;2023-05-10T15:34:26;19.20;90.30
73360;DHT22;63092;43.582;19.528;2023-05-10T15:36:53;19.20;90.50
73360;DHT22;63092;43.582;19.528;2023-05-10T15:39:19;19.20;90.10
73360;DHT22;63092;43.582;19.528;2023-05-10T15:41:44;19.20;90.50
73360;DHT22;63092;43.582;19.528;2023-05-10T15:44:13;19.20;90.60